This is the latest recevied weather packets stored in our database for station/object KD0KHX-10. If no packets are shown the sender has not sent any weather packets the latest 1 day(s).
| Time | Temp. | Humidity | Pressure | Rain* | Wind** | Luminosity | Snow |
|---|---|---|---|---|---|---|---|
| 1778045237 | 3.89° C | 93% | 1010.6 hPa | 0 mm | 0.89 m/s, 64° | - | - |
| 1778044803 | 3.89° C | 93% | 1010.6 hPa | 0 mm | 0.89 m/s, 64° | - | - |
| 1778044503 | 3.89° C | 93% | 1010.6 hPa | 0 mm | 0.89 m/s, 64° | - | - |
| 1778044338 | 3.89° C | 93% | 1010.5 hPa | 0 mm | 0.89 m/s, 64° | - | - |
| 1778043903 | 3.89° C | 93% | 1010.5 hPa | 0 mm | 1.34 m/s, 64° | - | - |
| 1778043603 | 3.89° C | 92% | 1010.4 hPa | 0 mm | 1.34 m/s, 64° | - | - |
| 1778043572 | 3.89° C | 92% | 1010.4 hPa | 0 mm | 1.34 m/s, 64° | - | - |
| 1778043003 | 3.89° C | 92% | 1010.5 hPa | 0 mm | 1.34 m/s, 64° | - | - |
| 1778042703 | 3.89° C | 92% | 1010.7 hPa | 0 mm | 1.79 m/s, 64° | - | - |
| 1778042403 | 3.89° C | 92% | 1010.7 hPa | 0 mm | 1.34 m/s, 64° | - | - |
| 1778042103 | 3.89° C | 92% | 1010.6 hPa | 0 mm | 1.79 m/s, 65° | - | - |
| 1778041803 | 3.89° C | 92% | 1010.6 hPa | 0 mm | 1.79 m/s, 65° | - | - |
| 1778041503 | 3.89° C | 92% | 1010.6 hPa | 0 mm | 1.79 m/s, 65° | - | - |
| 1778041203 | 3.89° C | 92% | 1010.5 hPa | 0 mm | 1.79 m/s, 65° | - | - |
| 1778040903 | 3.89° C | 92% | 1010.7 hPa | 0 mm | 2.24 m/s, 69° | - | - |
| 1778040603 | 3.89° C | 92% | 1010.4 hPa | 0 mm | 1.79 m/s, 79° | - | - |
| 1778040303 | 3.89° C | 92% | 1010.3 hPa | 0 mm | 1.79 m/s, 88° | - | - |
| 1778040003 | 3.89° C | 92% | 1010.1 hPa | 0 mm | 2.24 m/s, 92° | - | - |
| 1778039703 | 3.89° C | 92% | 1010 hPa | 0 mm | 2.68 m/s, 82° | - | - |
| 1778039403 | 3.89° C | 92% | 1010.2 hPa | 0 mm | 3.13 m/s, 63° | - | - |
| 1778039103 | 3.89° C | 92% | 1010.3 hPa | 0 mm | 4.02 m/s, 55° | - | - |
| 1778039072 | 3.89° C | 92% | 1010.3 hPa | 0 mm | 4.02 m/s, 54° | - | - |
| 1778038773 | 4.44° C | 92% | 1010.3 hPa | 0 mm | 3.58 m/s, 53° | - | - |
| 1778038203 | 4.44° C | 92% | 1010.2 hPa | 0 mm | 4.02 m/s, 54° | - | - |
| 1778037903 | 4.44° C | 91% | 1010.3 hPa | 0 mm | 3.58 m/s, 53° | - | - |
* Rain latest hour (hover to see other rain measurements)
** Current wind speed in m/s (hover to see current wind gust speed)